createdAt,value
2022-10-01T00:01:12.641Z,97831.66
2022-10-01T00:04:52.348Z,97830.02
2022-10-01T00:08:17.193Z,97838.31
2022-10-01T00:12:09.059Z,97833.96
2022-10-01T00:15:30.082Z,97833.27
2022-10-01T00:19:06.938Z,97834.48
2022-10-01T00:22:43.776Z,97833.09
2022-10-01T00:26:41.258Z,97828.91
2022-10-01T00:30:06.106Z,97829.80
2022-10-01T00:33:40.626Z,97833.29
2022-10-01T00:37:18.300Z,97841.76
2022-10-01T00:40:53.982Z,97838.48
2022-10-01T00:44:37.042Z,97841.59
2022-10-01T00:48:07.448Z,97840.48
2022-10-01T00:51:52.659Z,97844.29
2022-10-01T00:55:28.925Z,97833.96
2022-10-01T00:59:16.835Z,97827.36
2022-10-01T01:02:37.781Z,97824.67
2022-10-01T01:06:14.537Z,97822.14
2022-10-01T01:09:53.570Z,97824.91
2022-10-01T01:13:47.854Z,97824.06
2022-10-01T01:17:19.706Z,97821.73
2022-10-01T01:20:46.083Z,97822.21
2022-10-01T01:24:51.233Z,97816.91
2022-10-01T01:28:43.882Z,97814.70
2022-10-01T01:32:14.769Z,97812.46
2022-10-01T01:36:05.419Z,97806.16
2022-10-01T01:39:32.450Z,97807.33
2022-10-01T01:43:08.251Z,97807.67
2022-10-01T01:46:45.372Z,97807.67
2022-10-01T01:50:18.928Z,97823.44
2022-10-01T01:54:13.216Z,97825.91
2022-10-01T01:57:39.320Z,97824.71
2022-10-01T02:01:35.056Z,97825.86
2022-10-01T02:05:08.701Z,97827.86
2022-10-01T02:08:58.902Z,97826.17
2022-10-01T02:12:48.029Z,97831.23
2022-10-01T02:16:28.580Z,97828.98
2022-10-01T02:20:02.451Z,97828.76
2022-10-01T02:23:30.779Z,97835.00
2022-10-01T02:27:36.968Z,97832.30
2022-10-01T02:31:00.061Z,97835.23
2022-10-01T02:34:54.392Z,97830.45
2022-10-01T02:38:16.877Z,97833.34
2022-10-01T02:41:55.563Z,97833.31
2022-10-01T02:45:32.326Z,97831.30
2022-10-01T02:49:06.030Z,97841.05
2022-10-01T02:53:15.914Z,97840.63
2022-10-01T02:56:58.623Z,97835.02
2022-10-01T03:00:38.356Z,97832.33
2022-10-01T03:03:58.605Z,97830.98
2022-10-01T03:07:36.341Z,97836.40
2022-10-01T03:11:12.441Z,97841.17
2022-10-01T03:15:08.280Z,97841.89
2022-10-01T03:18:29.195Z,97841.73
2022-10-01T03:22:05.840Z,97835.56
2022-10-01T03:25:42.438Z,97835.70
2022-10-01T03:29:19.230Z,97837.37
2022-10-01T03:32:56.228Z,97835.40
2022-10-01T03:36:52.226Z,97833.23
2022-10-01T03:40:13.123Z,97828.29
2022-10-01T03:43:49.910Z,97827.83
2022-10-01T03:47:26.696Z,97828.84
2022-10-01T03:51:04.690Z,97825.94
2022-10-01T03:54:40.266Z,97824.25
2022-10-01T03:58:18.976Z,97819.38
2022-10-01T04:02:12.805Z,97822.79
2022-10-01T04:05:33.576Z,97817.50
2022-10-01T04:09:10.350Z,97809.90
2022-10-01T04:12:47.154Z,97806.74
2022-10-01T04:16:25.102Z,97803.30
2022-10-01T04:20:00.889Z,97800.48
2022-10-01T04:23:37.501Z,97793.05
2022-10-01T04:27:14.333Z,97788.05
2022-10-01T04:31:11.140Z,97791.92
2022-10-01T04:34:54.025Z,97786.98
2022-10-01T04:38:17.031Z,97788.25
2022-10-01T04:41:51.408Z,97791.68
2022-10-01T04:45:28.590Z,97794.31
2022-10-01T04:49:05.282Z,97797.37
2022-10-01T04:52:41.978Z,97801.21
2022-10-01T04:56:18.724Z,97812.91
2022-10-01T04:59:55.447Z,97815.18
2022-10-01T05:03:33.097Z,97812.14
2022-10-01T05:07:27.834Z,97807.48
2022-10-01T05:10:48.915Z,97804.38
2022-10-01T05:14:26.268Z,97807.06
2022-10-01T05:18:21.262Z,97805.79
2022-10-01T05:21:43.325Z,97805.27
2022-10-01T05:25:20.201Z,97802.69
2022-10-01T05:28:56.524Z,97803.33
2022-10-01T05:32:32.738Z,97806.19
2022-10-01T05:36:10.154Z,97804.19
2022-10-01T05:39:45.980Z,97801.20
2022-10-01T05:43:43.181Z,97799.09
2022-10-01T05:47:06.693Z,97796.41
2022-10-01T05:50:42.495Z,97797.52
2022-10-01T05:54:37.405Z,97790.80
2022-10-01T05:58:00.211Z,97787.23
2022-10-01T06:01:53.868Z,97781.06
2022-10-01T06:05:18.024Z,97775.14
2022-10-01T06:09:10.444Z,97774.90
2022-10-01T06:12:34.441Z,97776.17
2022-10-01T06:16:08.289Z,97778.89
2022-10-01T06:19:44.894Z,97775.84
2022-10-01T06:23:40.719Z,97779.21
2022-10-01T06:27:01.485Z,97781.63
2022-10-01T06:30:40.169Z,97784.20
2022-10-01T06:34:33.744Z,97789.45
2022-10-01T06:37:54.732Z,97782.09
2022-10-01T06:41:31.471Z,97785.80
2022-10-01T06:45:08.509Z,97785.15
2022-10-01T06:48:45.015Z,97789.13
2022-10-01T06:52:49.750Z,97784.85
2022-10-01T06:56:29.448Z,97784.29
2022-10-01T06:59:50.484Z,97791.43
2022-10-01T07:03:27.759Z,97788.60
2022-10-01T07:07:25.114Z,97780.98
2022-10-01T07:10:48.174Z,97778.52
2022-10-01T07:14:24.700Z,97777.16
2022-10-01T07:18:02.225Z,97781.02
2022-10-01T07:21:57.285Z,97775.40
2022-10-01T07:25:18.327Z,97774.31
2022-10-01T07:28:55.394Z,97775.30
2022-10-01T07:32:50.594Z,97778.50
2022-10-01T07:36:30.352Z,97781.27
2022-10-01T07:40:10.258Z,97782.44
2022-10-01T07:43:34.304Z,97782.67
2022-10-01T07:47:08.015Z,97778.38
2022-10-01T07:50:45.453Z,97771.82
2022-10-01T07:54:22.726Z,97772.27
2022-10-01T07:58:01.581Z,97776.93
2022-10-01T08:01:35.586Z,97771.50
2022-10-01T08:05:17.906Z,97767.57
2022-10-01T08:08:49.282Z,97762.29
2022-10-01T08:12:28.336Z,97756.76
2022-10-01T08:16:06.278Z,97758.71
2022-10-01T08:19:40.286Z,97750.33
2022-10-01T08:23:17.447Z,97747.66
2022-10-01T08:26:56.115Z,97746.78
2022-10-01T08:30:30.251Z,97744.85
2022-10-01T08:34:06.830Z,97744.41
2022-10-01T08:38:05.243Z,97745.30
2022-10-01T08:41:44.797Z,97744.77
2022-10-01T08:45:28.416Z,97740.79
2022-10-01T08:49:03.638Z,97736.12
2022-10-01T08:52:31.108Z,97738.95
2022-10-01T08:56:31.652Z,97738.08
2022-10-01T08:59:56.858Z,97735.20
2022-10-01T09:03:33.865Z,97732.20
2022-10-01T09:07:27.317Z,97725.61
2022-10-01T09:11:07.453Z,97725.92
2022-10-01T09:14:48.145Z,97728.00
2022-10-01T09:18:22.997Z,97731.80
2022-10-01T09:21:59.800Z,97722.27
2022-10-01T09:25:45.474Z,97713.28
2022-10-01T09:29:16.315Z,97704.56
2022-10-01T09:33:13.888Z,97700.80
2022-10-01T09:36:47.679Z,97704.64
2022-10-01T09:40:20.603Z,97702.81
2022-10-01T09:43:48.268Z,97695.08
2022-10-01T09:47:25.934Z,97693.09
2022-10-01T09:51:17.745Z,97691.49
2022-10-01T09:55:03.406Z,97686.27
2022-10-01T09:58:26.878Z,97682.54
2022-10-01T10:02:04.203Z,97683.16
2022-10-01T10:05:44.023Z,97678.78
2022-10-01T10:09:23.396Z,97669.44
2022-10-01T10:12:57.245Z,97662.55
2022-10-01T10:16:28.906Z,97666.85
2022-10-01T10:20:29.209Z,97663.20
2022-10-01T10:23:58.096Z,97662.27
2022-10-01T10:27:30.247Z,97658.56
2022-10-01T10:31:03.305Z,97660.33
2022-10-01T10:34:43.259Z,97644.69
2022-10-01T10:38:18.804Z,97635.19
2022-10-01T10:41:54.116Z,97628.10
2022-10-01T10:45:38.866Z,97618.96
2022-10-01T10:49:29.404Z,97610.82
2022-10-01T10:52:50.337Z,97601.59
2022-10-01T10:56:27.000Z,97595.48
2022-10-01T11:00:18.944Z,97588.02
2022-10-01T11:03:58.368Z,97572.57
2022-10-01T11:07:23.143Z,97566.73
2022-10-01T11:11:02.297Z,97561.86
2022-10-01T11:15:11.154Z,97555.14
2022-10-01T11:19:03.082Z,97550.36
2022-10-01T11:22:58.291Z,97542.92
2022-10-01T11:26:59.213Z,97532.67
2022-10-01T11:30:24.643Z,97525.05
2022-10-01T11:34:49.737Z,97514.20
2022-10-01T11:38:27.319Z,97509.45
2022-10-01T11:42:12.685Z,97503.25
2022-10-01T11:45:43.818Z,97498.55
2022-10-01T11:50:07.807Z,97492.89
2022-10-01T11:53:47.163Z,97482.05
2022-10-01T11:57:57.885Z,97474.31
2022-10-01T12:02:02.449Z,97477.27
2022-10-01T12:05:29.700Z,97471.40
2022-10-01T12:09:07.966Z,97466.34
2022-10-01T12:12:47.449Z,97466.20
2022-10-01T12:16:18.319Z,97460.39
2022-10-01T12:19:54.096Z,97462.81
2022-10-01T12:23:35.572Z,97451.75
2022-10-01T12:27:33.569Z,97445.37
2022-10-01T12:31:29.625Z,97440.55
2022-10-01T12:35:37.470Z,97439.86
2022-10-01T12:39:23.993Z,97436.61
2022-10-01T12:43:13.625Z,97433.98
2022-10-01T12:46:41.716Z,97432.02
2022-10-01T12:50:45.621Z,97431.20
2022-10-01T12:54:31.447Z,97430.89
2022-10-01T12:58:15.450Z,97427.90
2022-10-01T13:01:47.882Z,97424.14
2022-10-01T13:05:34.692Z,97417.20
2022-10-01T13:09:39.880Z,97417.33
2022-10-01T13:13:16.969Z,97416.40
2022-10-01T13:17:04.256Z,97409.67
2022-10-01T13:21:11.136Z,97410.75
2022-10-01T13:24:56.541Z,97405.65
2022-10-01T13:28:26.940Z,97400.86
2022-10-01T13:31:57.448Z,97400.19
2022-10-01T13:35:39.585Z,97399.75
2022-10-01T13:39:20.019Z,97394.36
2022-10-01T13:42:47.167Z,97393.08
2022-10-01T13:46:21.967Z,97395.60
2022-10-01T13:50:05.975Z,97392.30
2022-10-01T13:54:00.805Z,97390.98
2022-10-01T13:57:50.449Z,97386.10
2022-10-01T14:01:23.028Z,97381.02
2022-10-01T14:05:42.622Z,97378.36
2022-10-01T14:09:24.402Z,97372.54
2022-10-01T14:13:05.749Z,97367.19
2022-10-01T14:16:31.310Z,97364.86
2022-10-01T14:20:31.933Z,97363.05
2022-10-01T14:24:03.194Z,97362.64
2022-10-01T14:28:10.010Z,97356.46
2022-10-01T14:31:52.953Z,97351.13
2022-10-01T14:35:19.461Z,97344.23
2022-10-01T14:38:50.126Z,97338.70
2022-10-01T14:42:26.923Z,97334.95
2022-10-01T14:46:06.771Z,97331.73
2022-10-01T14:49:40.580Z,97326.56
2022-10-01T14:53:19.250Z,97323.29
2022-10-01T14:56:56.986Z,97322.02
2022-10-01T15:00:33.030Z,97317.72
2022-10-01T15:04:20.050Z,97307.60
2022-10-01T15:07:47.190Z,97298.03
2022-10-01T15:11:26.106Z,97297.32
2022-10-01T15:14:58.037Z,97291.11
2022-10-01T15:18:36.977Z,97297.46
2022-10-01T15:22:32.537Z,97296.64
2022-10-01T15:25:54.642Z,97292.88
2022-10-01T15:29:30.381Z,97290.45
2022-10-01T15:33:21.095Z,97289.10
2022-10-01T15:36:44.644Z,97291.27
2022-10-01T15:40:25.367Z,97286.33
2022-10-01T15:44:01.248Z,97282.16
2022-10-01T15:47:57.234Z,97278.08
2022-10-01T15:51:20.307Z,97283.09
2022-10-01T15:55:00.101Z,97285.59
2022-10-01T15:58:39.258Z,97283.96
2022-10-01T16:02:15.402Z,97279.52
2022-10-01T16:06:07.793Z,97279.67
2022-10-01T16:09:29.834Z,97279.20
2022-10-01T16:13:45.003Z,97286.13
2022-10-01T16:17:19.010Z,97281.55
2022-10-01T16:20:47.905Z,97280.27
2022-10-01T16:25:03.662Z,97279.24
2022-10-01T16:28:49.762Z,97274.06
2022-10-01T16:32:14.926Z,97277.50
2022-10-01T16:35:48.805Z,97270.72
2022-10-01T16:39:25.233Z,97272.29
2022-10-01T16:43:02.786Z,97268.34
2022-10-01T16:46:38.152Z,97272.42
2022-10-01T16:50:34.112Z,97263.31
2022-10-01T16:53:55.123Z,97260.70
2022-10-01T16:57:32.669Z,97255.02
2022-10-01T17:01:28.535Z,97262.54
2022-10-01T17:05:17.562Z,97263.03
2022-10-01T17:08:40.903Z,97259.77
2022-10-01T17:12:33.815Z,97254.91
2022-10-01T17:15:54.910Z,97244.32
2022-10-01T17:19:34.053Z,97245.45
2022-10-01T17:23:08.354Z,97246.17
2022-10-01T17:26:45.661Z,97238.76
2022-10-01T17:30:24.396Z,97239.46
2022-10-01T17:33:58.072Z,97234.63
2022-10-01T17:37:35.030Z,97230.81
2022-10-01T17:41:11.712Z,97225.30
2022-10-01T17:44:48.677Z,97222.26
2022-10-01T17:48:48.312Z,97218.34
2022-10-01T17:52:09.215Z,97226.64
2022-10-01T17:55:46.893Z,97230.67
2022-10-01T17:59:22.738Z,97228.98
2022-10-01T18:03:01.269Z,97227.08
2022-10-01T18:06:36.631Z,97228.88
2022-10-01T18:10:13.684Z,97235.18
2022-10-01T18:13:51.260Z,97240.70
2022-10-01T18:17:26.893Z,97251.09
2022-10-01T18:21:14.044Z,97261.64
2022-10-01T18:24:58.977Z,97294.30
2022-10-01T18:28:23.478Z,97311.23
2022-10-01T18:32:13.681Z,97299.64
2022-10-01T18:35:35.304Z,97297.14
2022-10-01T18:39:22.242Z,97305.52
2022-10-01T18:42:58.245Z,97308.71
2022-10-01T18:46:43.729Z,97310.26
2022-10-01T18:51:02.382Z,97310.87
2022-10-01T18:54:41.586Z,97310.89
2022-10-01T18:58:24.465Z,97306.17
2022-10-01T19:02:29.280Z,97304.05
2022-10-01T19:06:10.771Z,97308.19
2022-10-01T19:10:08.432Z,97303.31
2022-10-01T19:13:47.465Z,97311.52
2022-10-01T19:17:14.658Z,97315.79
2022-10-01T19:21:20.075Z,97322.54
2022-10-01T19:25:05.847Z,97321.31
2022-10-01T19:28:42.920Z,97323.79
2022-10-01T19:32:14.344Z,97323.66
2022-10-01T19:35:44.405Z,97327.19
2022-10-01T19:39:24.244Z,97331.33
2022-10-01T19:43:21.922Z,97333.62
2022-10-01T19:46:46.042Z,97339.06
2022-10-01T19:50:30.535Z,97341.08
2022-10-01T19:54:13.517Z,97339.52
2022-10-01T19:57:39.196Z,97337.02
2022-10-01T20:01:38.452Z,97340.58
2022-10-01T20:05:07.094Z,97344.40
2022-10-01T20:08:55.914Z,97340.55
2022-10-01T20:12:38.802Z,97342.47
2022-10-01T20:16:23.575Z,97345.70
2022-10-01T20:20:03.182Z,97345.69
2022-10-01T20:24:20.265Z,97347.63
2022-10-01T20:27:54.996Z,97353.81
2022-10-01T20:32:15.105Z,97357.49
2022-10-01T20:35:47.693Z,97364.95
2022-10-01T20:39:25.606Z,97367.81
2022-10-01T20:43:38.435Z,97370.48
2022-10-01T20:47:36.647Z,97369.13
2022-10-01T20:51:32.034Z,97368.12
2022-10-01T20:55:00.515Z,97370.04
2022-10-01T20:58:34.379Z,97372.16
2022-10-01T21:02:19.158Z,97372.64
2022-10-01T21:05:54.415Z,97370.52
2022-10-01T21:09:45.730Z,97370.52
2022-10-01T21:13:34.269Z,97374.52
2022-10-01T21:17:14.665Z,97374.02
2022-10-01T21:21:10.257Z,97373.54
2022-10-01T21:24:34.168Z,97379.60
2022-10-01T21:28:56.176Z,97375.88
2022-10-01T21:32:38.527Z,97378.28
2022-10-01T21:36:27.313Z,97384.39
2022-10-01T21:40:00.243Z,97385.20
2022-10-01T21:43:57.007Z,97386.33
2022-10-01T21:47:36.312Z,97386.61
2022-10-01T21:51:41.981Z,97391.21
2022-10-01T21:55:41.573Z,97393.54
2022-10-01T21:59:21.785Z,97396.35
2022-10-01T22:02:48.114Z,97397.56
2022-10-01T22:06:19.878Z,97402.62
2022-10-01T22:10:17.008Z,97399.05
2022-10-01T22:14:00.869Z,97401.32
2022-10-01T22:17:27.082Z,97397.44
2022-10-01T22:21:01.066Z,97400.86
2022-10-01T22:24:43.724Z,97401.14
2022-10-01T22:28:39.344Z,97404.45
2022-10-01T22:32:03.973Z,97406.88
2022-10-01T22:35:43.324Z,97404.20
2022-10-01T22:39:22.055Z,97407.65
2022-10-01T22:42:59.580Z,97409.94
2022-10-01T22:46:49.806Z,97412.14
2022-10-01T22:50:24.104Z,97414.92
2022-10-01T22:54:23.725Z,97418.18
2022-10-01T22:58:10.622Z,97416.20
2022-10-01T23:02:09.900Z,97417.06
2022-10-01T23:05:48.634Z,97423.71
2022-10-01T23:09:24.147Z,97427.85
2022-10-01T23:12:49.708Z,97432.24
2022-10-01T23:16:35.941Z,97435.88
2022-10-01T23:20:14.320Z,97432.88
2022-10-01T23:24:11.314Z,97432.45
2022-10-01T23:27:53.371Z,97432.79
2022-10-01T23:31:39.849Z,97439.17
2022-10-01T23:35:13.215Z,97441.23
2022-10-01T23:39:08.636Z,97443.44
2022-10-01T23:42:59.304Z,97449.06
2022-10-01T23:46:31.750Z,97451.10
2022-10-01T23:50:00.835Z,97452.45
2022-10-01T23:54:06.875Z,97459.15
2022-10-01T23:57:31.917Z,97462.11
